Wing, North Dakota
Current Conditions -  °F | °C
As of 1:52 AM on Sunday 21 Dec 2014 (Local Time) from KBIS Reporting Station
Clear Clear  
Wind Chill: -9°   Ceiling: Unl
Heat Index: -9°   Visibility: 10mi
Dew Point: -11°   Wind: 3mph
Humidity: 91%   Direction: 50°NE
Pressure: 29.75"   Gusts: NA
Location:  47.14°N, 100.28°W
Report Text: KBIS 210752Z AUTO 05003KT 10SM CLR M09/M11 A2975 RMK AO2 SLP099 T10941106
Loading
Personal Weather Stations






























Interactive Weather Map New forecast layout! Learn more

10-Day Weather Forecast

Advertisements
Track Severe Weather on mobile